Time;durP1;ratioP1;P1;durP2;ratioP2;P2;SDS_P1;SDS_P2;PMS_P1;PMS_P2;Temp;Humidity;BMP_temperature;BMP_pressure;BME280_temperature;BME280_humidity;BME280_pressure;Samples;Min_cycle;Max_cycle;Signal;HPM_P1;HPM_P2
2023/10/04 00:00:50;;;;;;;1.75;0.03;;;13.00;99.90;;;;;;5096990;28;20016;-74
2023/10/04 00:03:15;;;;;;;2.33;0.00;;;12.90;99.90;;;;;;5096918;28;20097;-74
2023/10/04 00:05:42;;;;;;;5.85;0.20;;;12.90;99.90;;;;;;5096779;28;20063;-74
2023/10/04 00:08:08;;;;;;;6.97;0.05;;;12.90;99.90;;;;;;5096782;28;20028;-74
2023/10/04 00:10:34;;;;;;;2.05;0.30;;;12.80;99.90;;;;;;5097402;28;20020;-74
2023/10/04 00:12:59;;;;;;;4.25;0.00;;;12.70;99.90;;;;;;5096735;28;20024;-74
2023/10/04 00:15:26;;;;;;;5.18;0.20;;;12.70;99.90;;;;;;5096576;28;20032;-74
2023/10/04 00:17:52;;;;;;;0.65;0.10;;;12.60;99.90;;;;;;5097108;28;20052;-74
2023/10/04 00:20:20;;;;;;;5.68;0.25;;;12.60;99.90;;;;;;5096600;28;20024;-74
2023/10/04 00:22:47;;;;;;;2.88;0.10;;;12.50;99.90;;;;;;5097171;28;20091;-74
2023/10/04 00:25:20;;;;;;;3.60;0.00;;;12.50;99.90;;;;;;5096491;28;20044;-74
2023/10/04 00:28:00;;;;;;;2.60;0.00;;;12.50;99.90;;;;;;5078368;28;20035;-74
2023/10/04 00:30:28;;;;;;;2.40;0.10;;;12.40;99.90;;;;;;5078255;28;20024;-74
2023/10/04 00:32:55;;;;;;;2.90;0.50;;;12.40;99.90;;;;;;5078204;28;20027;-74
2023/10/04 00:35:21;;;;;;;6.38;0.00;;;12.30;99.90;;;;;;5096441;28;20032;-74
2023/10/04 00:37:55;;;;;;;8.10;0.30;;;12.30;99.90;;;;;;5078011;28;20031;-74
2023/10/04 00:40:30;;;;;;;4.18;0.00;;;12.20;99.90;;;;;;5078068;28;20016;-74
2023/10/04 00:43:01;;;;;;;2.42;0.03;;;12.10;99.90;;;;;;5096161;28;20540;-74
2023/10/04 00:45:33;;;;;;;1.10;0.00;;;12.10;99.90;;;;;;5096085;28;20399;-74
2023/10/04 00:48:04;;;;;;;4.13;0.52;;;12.10;99.90;;;;;;5095108;28;20585;-74
2023/10/04 00:50:31;;;;;;;1.38;0.35;;;12.20;99.90;;;;;;5077902;28;20016;-74
2023/10/04 00:53:21;;;;;;;5.03;0.30;;;12.20;99.90;;;;;;5095954;28;20019;-74
2023/10/04 00:55:49;;;;;;;5.82;0.20;;;12.20;99.90;;;;;;5095752;28;20039;-74
2023/10/04 00:58:18;;;;;;;4.22;0.22;;;12.20;99.90;;;;;;5095881;28;20031;-74
2023/10/04 01:00:44;;;;;;;;;;;12.20;99.90;;;;;;5096200;28;20041;-74
2023/10/04 01:03:10;;;;;;;4.50;0.20;;;12.20;99.90;;;;;;5095812;28;19970;-74
2023/10/04 01:05:47;;;;;;;2.80;0.45;;;12.20;99.90;;;;;;5095880;28;20027;-74
2023/10/04 01:08:16;;;;;;;6.18;0.10;;;12.20;99.90;;;;;;5095802;28;20539;-74
2023/10/04 01:10:46;;;;;;;1.48;0.25;;;12.20;99.90;;;;;;5077617;28;20534;-74
2023/10/04 01:13:11;;;;;;;5.53;0.30;;;12.20;99.90;;;;;;5095587;28;20471;-73
2023/10/04 01:15:39;;;;;;;3.20;0.45;;;12.20;99.90;;;;;;5095431;28;20046;-74
2023/10/04 01:18:12;;;;;;;3.47;0.00;;;12.30;99.90;;;;;;5095504;28;20020;-74
2023/10/04 01:20:38;;;;;;;5.93;0.20;;;12.30;99.90;;;;;;5096046;28;20027;-74
2023/10/04 01:23:06;;;;;;;4.50;0.45;;;12.30;99.90;;;;;;5095708;28;20012;-76
2023/10/04 01:25:37;;;;;;;5.00;0.38;;;12.30;99.90;;;;;;5095299;28;20023;-76
2023/10/04 01:28:12;;;;;;;6.70;0.28;;;12.30;99.90;;;;;;5096289;28;20069;-76
2023/10/04 01:30:41;;;;;;;8.40;0.43;;;12.40;99.90;;;;;;5077197;28;20024;-76
2023/10/04 01:33:15;;;;;;;1.85;0.32;;;12.40;99.90;;;;;;5095246;28;20103;-76
2023/10/04 01:35:53;;;;;;;9.85;0.43;;;12.40;99.90;;;;;;5076990;28;20391;-76
2023/10/04 01:38:31;;;;;;;4.63;0.47;;;12.50;99.90;;;;;;5095291;28;20017;-76
2023/10/04 01:40:58;;;;;;;6.00;0.00;;;12.60;99.90;;;;;;5095090;28;20043;-76
2023/10/04 01:43:24;;;;;;;7.32;0.63;;;12.50;99.90;;;;;;5095002;28;20020;-76
2023/10/04 01:45:57;;;;;;;7.38;0.20;;;12.50;99.90;;;;;;5076827;28;20024;-76
2023/10/04 01:48:23;;;;;;;5.63;0.10;;;12.50;99.90;;;;;;5094959;28;20461;-76
2023/10/04 01:50:51;;;;;;;4.40;0.00;;;12.60;99.90;;;;;;5076848;28;20020;-76
2023/10/04 01:53:18;;;;;;;9.73;0.20;;;12.60;99.90;;;;;;5094900;28;20043;-76
2023/10/04 01:55:44;;;;;;;7.03;0.85;;;12.70;99.90;;;;;;5076369;28;20544;-76
2023/10/04 01:58:10;;;;;;;6.20;0.57;;;12.80;99.90;;;;;;5076570;28;20020;-76
2023/10/04 02:00:36;;;;;;;2.70;0.60;;;12.80;99.90;;;;;;5076339;28;20043;-76
2023/10/04 02:03:02;;;;;;;4.18;0.43;;;12.80;99.90;;;;;;5076429;28;20020;-76
2023/10/04 02:05:31;;;;;;;6.15;0.10;;;12.80;99.90;;;;;;5076350;28;20073;-76
2023/10/04 02:07:58;;;;;;;2.88;0.20;;;12.80;99.90;;;;;;5094558;28;20023;-76
2023/10/04 02:10:24;;;;;;;3.80;0.38;;;12.80;99.90;;;;;;5094499;28;20035;-76
2023/10/04 02:12:59;;;;;;;3.58;0.00;;;12.80;99.90;;;;;;5076314;28;20020;-76
2023/10/04 02:15:24;;;;;;;2.60;0.00;;;12.80;99.90;;;;;;5094643;28;20032;-76
2023/10/04 02:17:51;;;;;;;5.22;0.73;;;12.90;99.90;;;;;;5094396;28;20509;-76
2023/10/04 02:20:25;;;;;;;1.85;0.10;;;12.80;99.90;;;;;;5094332;28;20024;-76
2023/10/04 02:22:51;;;;;;;3.63;0.00;;;12.80;99.90;;;;;;5094918;28;20017;-76
2023/10/04 02:25:19;;;;;;;5.35;0.15;;;12.80;99.90;;;;;;5094130;28;20024;-76
2023/10/04 02:27:45;;;;;;;5.40;0.30;;;12.80;99.90;;;;;;5076116;28;20027;-76
2023/10/04 02:30:26;;;;;;;8.30;0.65;;;12.80;99.90;;;;;;5075859;28;20028;-76
2023/10/04 02:32:52;;;;;;;4.70;0.13;;;12.80;99.90;;;;;;5094689;28;20016;-76
2023/10/04 02:35:29;;;;;;;5.95;0.98;;;12.70;99.90;;;;;;5093912;28;20503;-76
2023/10/04 02:37:59;;;;;;;4.05;0.90;;;12.70;99.90;;;;;;5093960;28;20387;-76
2023/10/04 02:40:27;;;;;;;1.70;0.45;;;12.70;99.90;;;;;;5094128;28;20104;-76
2023/10/04 02:42:56;;;;;;;5.43;0.00;;;12.60;99.90;;;;;;5093974;28;20048;-76
2023/10/04 02:45:24;;;;;;;;;;;12.60;99.90;;;;;;5094805;28;20023;-76
2023/10/04 02:47:51;;;;;;;6.55;1.08;;;12.50;99.90;;;;;;5075714;28;19913;-76
2023/10/04 02:50:18;;;;;;;3.92;0.22;;;12.50;99.90;;;;;;5075655;28;20020;-76
2023/10/04 02:52:44;;;;;;;11.30;0.38;;;12.50;99.90;;;;;;5093705;28;20039;-76
2023/10/04 02:55:15;;;;;;;6.72;0.10;;;12.50;99.90;;;;;;5075407;28;20034;-76
2023/10/04 02:57:42;;;;;;;7.30;0.10;;;12.50;99.90;;;;;;5075529;28;20027;-76
2023/10/04 03:00:12;;;;;;;3.55;0.00;;;12.50;99.90;;;;;;5093672;28;20049;-76
2023/10/04 03:02:38;;;;;;;2.83;0.10;;;12.50;99.90;;;;;;5093718;28;20390;-76
2023/10/04 03:05:06;;;;;;;3.20;0.30;;;12.50;99.90;;;;;;5094054;28;20024;-76
2023/10/04 03:07:33;;;;;;;6.00;0.10;;;12.40;99.90;;;;;;5093453;28;20081;-76
2023/10/04 03:09:58;;;;;;;1.88;0.45;;;12.40;99.90;;;;;;5075421;28;20081;-76
2023/10/04 03:12:24;;;;;;;1.63;0.20;;;12.30;99.90;;;;;;5092817;28;20032;-76
2023/10/04 03:14:50;;;;;;;4.40;0.30;;;12.30;99.90;;;;;;5093395;28;20028;-76
2023/10/04 03:17:16;;;;;;;8.77;0.10;;;12.30;99.90;;;;;;5093348;28;20082;-76
2023/10/04 03:19:43;;;;;;;5.55;0.20;;;12.20;99.90;;;;;;5093411;28;20388;-76
2023/10/04 03:22:10;;;;;;;5.28;0.50;;;12.10;99.90;;;;;;5075365;28;20050;-76
2023/10/04 03:24:36;;;;;;;3.47;0.00;;;12.10;99.90;;;;;;5093344;28;20051;-76
2023/10/04 03:27:05;;;;;;;2.38;0.00;;;12.10;99.90;;;;;;5093887;28;20535;-76
2023/10/04 03:29:31;;;;;;;4.90;0.10;;;12.00;99.90;;;;;;5093850;28;20017;-76
2023/10/04 03:31:56;;;;;;;3.75;0.10;;;12.00;99.90;;;;;;5093402;28;20032;-76
2023/10/04 03:34:25;;;;;;;2.00;0.00;;;11.90;99.90;;;;;;5093185;28;20023;-76
2023/10/04 03:36:51;;;;;;;4.80;0.35;;;;;;;;;;5093624;28;20077;-76
2023/10/04 03:39:16;;;;;;;6.35;0.20;;;11.90;99.90;;;;;;5075045;28;20491;-76
2023/10/04 03:41:42;;;;;;;1.95;0.10;;;11.90;99.90;;;;;;5093063;28;20020;-76
2023/10/04 03:44:09;;;;;;;6.18;0.30;;;11.90;99.90;;;;;;5093759;28;20027;-76
2023/10/04 03:46:34;;;;;;;2.55;0.10;;;11.90;99.90;;;;;;5074919;28;20024;-76
2023/10/04 03:49:02;;;;;;;4.97;0.40;;;11.90;99.90;;;;;;5075138;28;20089;-76
2023/10/04 03:51:28;;;;;;;3.35;0.65;;;12.00;99.90;;;;;;5074960;28;20028;-76
2023/10/04 03:53:54;;;;;;;4.82;0.47;;;12.00;99.90;;;;;;5093038;28;20024;-76
2023/10/04 03:56:22;;;;;;;7.45;0.20;;;11.90;99.90;;;;;;5074697;28;20119;-76
2023/10/04 03:58:48;;;;;;;3.88;0.32;;;11.90;99.90;;;;;;5074873;28;20020;-76
2023/10/04 04:01:14;;;;;;;10.32;0.75;;;11.90;99.90;;;;;;5074922;28;20528;-76
2023/10/04 04:03:40;;;;;;;6.32;0.20;;;11.90;99.90;;;;;;5074957;28;20020;-76
2023/10/04 04:06:07;;;;;;;4.38;0.10;;;11.80;99.90;;;;;;5074983;28;20028;-76
2023/10/04 04:08:37;;;;;;;4.18;0.30;;;11.80;99.90;;;;;;5074759;28;20028;-76
2023/10/04 04:11:05;;;;;;;3.22;0.63;;;11.70;99.90;;;;;;5074777;28;20483;-76
2023/10/04 04:13:31;;;;;;;6.82;0.73;;;11.80;99.90;;;;;;5092981;28;20513;-76
2023/10/04 04:15:56;;;;;;;3.50;0.10;;;11.70;99.90;;;;;;5074504;28;20059;-76
2023/10/04 04:18:23;;;;;;;3.63;0.10;;;11.60;99.90;;;;;;5074770;28;20023;-76
2023/10/04 04:20:49;;;;;;;5.78;0.25;;;11.60;99.90;;;;;;5074929;28;20034;-76
2023/10/04 04:23:15;;;;;;;5.70;0.22;;;11.60;99.90;;;;;;5076463;28;20053;-76
2023/10/04 04:25:43;;;;;;;3.15;0.20;;;11.60;99.90;;;;;;5096511;28;20414;-76
2023/10/04 04:28:09;;;;;;;3.85;0.60;;;11.60;99.90;;;;;;5097093;28;20020;-76
2023/10/04 04:30:35;;;;;;;3.05;0.20;;;11.60;99.90;;;;;;5096496;28;20024;-76
2023/10/04 04:33:07;;;;;;;4.10;0.32;;;11.70;99.90;;;;;;5096625;28;20081;-76
2023/10/04 04:38:13;;;;;;;4.10;0.03;;;11.70;99.90;;;;;;5096346;28;20028;-76
2023/10/04 04:40:39;;;;;;;1.13;0.15;;;11.70;99.90;;;;;;5096834;28;20505;-76
2023/10/04 04:45:52;;;;;;;3.08;0.00;;;11.70;99.90;;;;;;5096495;28;20360;-75
2023/10/04 04:48:23;;;;;;;4.82;0.22;;;11.70;99.90;;;;;;5096013;28;20026;-76
2023/10/04 04:50:51;;;;;;;2.60;0.00;;;11.60;99.90;;;;;;5096938;28;20108;-76
2023/10/04 04:53:18;;;;;;;3.20;0.68;;;11.60;99.90;;;;;;5096195;28;20423;-76
2023/10/04 04:55:45;;;;;;;4.57;0.43;;;11.60;99.90;;;;;;5095781;28;20398;-76
2023/10/04 04:58:14;;;;;;;5.45;0.10;;;11.60;99.90;;;;;;5096185;28;20024;-76
2023/10/04 05:00:42;;;;;;;10.13;0.30;;;11.60;99.90;;;;;;5096403;28;20535;-76
2023/10/04 05:03:09;;;;;;;;;;;11.50;99.90;;;;;;5096363;28;20009;-76
2023/10/04 05:05:34;;;;;;;5.20;0.15;;;11.60;99.90;;;;;;5095815;28;19904;-76
2023/10/04 05:08:04;;;;;;;2.88;0.45;;;11.50;99.90;;;;;;5095826;28;20035;-76
2023/10/04 05:10:34;;;;;;;1.90;0.20;;;11.60;99.90;;;;;;5095748;28;20085;-76
2023/10/04 05:13:01;;;;;;;4.53;0.32;;;12.40;99.90;;;;;;5077733;28;20085;-76
2023/10/04 05:15:38;;;;;;;3.97;0.50;;;11.60;99.90;;;;;;5095549;28;20027;-76
2023/10/04 05:18:04;;;;;;;4.63;0.30;;;11.50;99.90;;;;;;5095673;28;20031;-76
2023/10/04 05:20:31;;;;;;;3.67;0.60;;;11.50;99.90;;;;;;5095648;28;20016;-76
2023/10/04 05:23:01;;;;;;;2.60;0.43;;;11.50;99.90;;;;;;5077531;28;20028;-76
2023/10/04 05:25:30;;;;;;;7.05;0.45;;;11.60;99.90;;;;;;5077599;28;20042;-76
2023/10/04 05:28:09;;;;;;;4.45;0.10;;;11.50;99.90;;;;;;5077171;28;20034;-76
2023/10/04 05:30:35;;;;;;;;;;;11.50;99.90;;;;;;5077692;28;20023;-75
2023/10/04 05:33:01;;;;;;;6.50;0.68;;;11.60;99.90;;;;;;5095379;28;19904;-76
2023/10/04 05:35:27;;;;;;;8.85;0.82;;;11.60;99.90;;;;;;5094629;28;20055;-76
2023/10/04 05:37:53;;;;;;;7.95;0.28;;;11.60;99.90;;;;;;5095168;28;20487;-76
2023/10/04 05:40:25;;;;;;;7.25;0.13;;;11.60;99.90;;;;;;5098733;28;20024;-77
2023/10/04 05:42:53;;;;;;;7.32;1.10;;;11.70;99.90;;;;;;5084692;28;20131;-79
2023/10/04 05:45:22;;;;;;;4.75;0.30;;;11.70;99.90;;;;;;5101133;28;20450;-78
2023/10/04 05:47:50;;;;;;;2.22;0.20;;;11.90;99.90;;;;;;5078415;28;20020;-76
2023/10/04 05:50:22;;;;;;;5.90;0.93;;;11.90;99.90;;;;;;5076979;28;20028;-76
2023/10/04 05:52:49;;;;;;;5.40;0.40;;;12.00;99.90;;;;;;5095271;28;20016;-77
2023/10/04 05:55:22;;;;;;;7.88;0.28;;;12.00;99.90;;;;;;5094957;28;20494;-76
2023/10/04 05:57:52;;;;;;;2.83;0.98;;;12.00;99.90;;;;;;5096496;28;20073;-79
2023/10/04 06:00:40;;;;;;;2.97;0.47;;;12.00;99.90;;;;;;5094943;28;20099;-76
2023/10/04 06:03:07;;;;;;;5.03;0.60;;;12.00;99.90;;;;;;5095317;28;20095;-76
2023/10/04 06:05:37;;;;;;;4.63;0.28;;;12.00;99.90;;;;;;5094707;28;20501;-76
2023/10/04 06:08:11;;;;;;;6.32;0.20;;;12.00;99.90;;;;;;5094828;28;20024;-76
2023/10/04 06:10:38;;;;;;;4.05;0.68;;;12.00;99.90;;;;;;5093149;28;20032;-76
2023/10/04 06:13:11;;;;;;;5.85;0.88;;;12.00;99.90;;;;;;5074502;28;20398;-76
2023/10/04 06:15:46;;;;;;;6.10;0.60;;;12.10;99.90;;;;;;5093621;28;20024;-77
2023/10/04 06:18:16;;;;;;;8.43;0.40;;;12.10;99.90;;;;;;5093800;28;20020;-76
2023/10/04 06:20:43;;;;;;;10.32;0.52;;;12.40;99.90;;;;;;5075526;28;20030;-76
2023/10/04 06:23:10;;;;;;;4.88;0.20;;;12.20;99.90;;;;;;5094291;28;20031;-76
2023/10/04 06:26:02;;;;;;;8.05;0.20;;;12.20;99.90;;;;;;5094124;28;20103;-76
2023/10/04 06:28:28;;;;;;;4.38;0.60;;;12.20;99.90;;;;;;5090691;28;20036;-76
2023/10/04 06:30:54;;;;;;;4.95;0.35;;;12.20;99.90;;;;;;5094947;28;20023;-77
2023/10/04 06:33:19;;;;;;;17.45;1.90;;;12.20;99.90;;;;;;5078819;28;20027;-79
2023/10/04 06:35:46;;;;;;;7.05;1.58;;;12.20;99.90;;;;;;5097635;28;20533;-79
2023/10/04 06:38:13;;;;;;;7.50;1.10;;;12.20;99.90;;;;;;5079687;28;20018;-79
2023/10/04 06:40:39;;;;;;;5.93;1.08;;;12.30;99.90;;;;;;5097511;28;20051;-79
2023/10/04 06:43:08;;;;;;;4.18;0.10;;;12.30;99.90;;;;;;5080204;28;20073;-79
2023/10/04 06:45:35;;;;;;;7.57;0.32;;;12.50;99.90;;;;;;5095410;28;20103;-78
2023/10/04 06:48:02;;;;;;;4.35;0.63;;;12.60;99.90;;;;;;5076861;28;20050;-79
2023/10/04 06:50:32;;;;;;;11.05;0.85;;;12.70;99.90;;;;;;5077911;28;20394;-79
2023/10/04 06:52:59;;;;;;;7.80;0.82;;;12.80;99.90;;;;;;5096310;28;20073;-78
2023/10/04 06:55:25;;;;;;;5.68;0.80;;;12.90;99.90;;;;;;5077683;28;20032;-78
2023/10/04 06:57:51;;;;;;;2.90;0.43;;;13.00;99.90;;;;;;5096065;28;20055;-78
2023/10/04 07:00:18;;;;;;;5.45;0.80;;;13.00;99.90;;;;;;5096460;28;20379;-79
2023/10/04 07:02:44;;;;;;;8.35;1.25;;;13.10;99.90;;;;;;5097826;28;20016;-77
2023/10/04 07:05:17;;;;;;;5.40;1.02;;;13.10;99.90;;;;;;5096183;28;20016;-78
2023/10/04 07:07:44;;;;;;;4.90;0.63;;;13.90;99.90;;;;;;5096633;28;20514;-78
2023/10/04 07:10:13;;;;;;;7.53;0.38;;;13.90;99.90;;;;;;5096201;28;20517;-80
2023/10/04 07:12:39;;;;;;;6.22;0.60;;;13.40;99.90;;;;;;5095871;28;20020;-78
2023/10/04 07:15:06;;;;;;;8.13;0.82;;;13.40;99.90;;;;;;5095670;28;20028;-78
2023/10/04 07:17:32;;;;;;;8.15;0.85;;;13.50;99.90;;;;;;5077606;28;20368;-78
2023/10/04 07:19:58;;;;;;;5.05;0.43;;;14.10;99.90;;;;;;5077907;28;20027;-78
2023/10/04 07:22:29;;;;;;;3.70;0.32;;;13.70;99.90;;;;;;5095709;28;20012;-78
2023/10/04 07:24:58;;;;;;;6.28;0.55;;;13.70;99.90;;;;;;5095800;28;20422;-78
2023/10/04 07:27:24;;;;;;;;;;;13.80;99.90;;;;;;5077856;28;20414;-78
2023/10/04 07:29:50;;;;;;;7.65;0.38;;;14.00;99.90;;;;;;5095810;28;19932;-78
2023/10/04 07:32:19;;;;;;;5.90;1.65;;;14.10;99.90;;;;;;5096253;28;20027;-78
2023/10/04 07:34:44;;;;;;;9.07;0.55;;;14.10;99.90;;;;;;5077395;28;20024;-79
2023/10/04 07:37:10;;;;;;;7.50;0.98;;;14.20;99.90;;;;;;5076972;28;20497;-79
2023/10/04 07:39:35;;;;;;;7.38;0.45;;;14.90;99.90;;;;;;5096470;28;20051;-78
2023/10/04 07:42:02;;;;;;;6.75;0.95;;;14.30;99.90;;;;;;5095177;28;20483;-78
2023/10/04 07:44:30;;;;;;;9.00;1.30;;;14.50;99.90;;;;;;5095710;28;20060;-78
2023/10/04 07:46:59;;;;;;;6.15;0.30;;;14.60;99.90;;;;;;5077415;28;20031;-78
2023/10/04 07:49:24;;;;;;;;;;;14.60;99.90;;;;;;5096415;28;20098;-78
2023/10/04 07:51:50;;;;;;;4.28;0.30;;;14.60;99.90;;;;;;5095371;28;19961;-78
2023/10/04 07:54:18;;;;;;;4.20;0.43;;;14.70;99.90;;;;;;5095523;28;20395;-78
2023/10/04 07:56:44;;;;;;;4.90;0.60;;;14.70;99.90;;;;;;5077066;28;20064;-78
2023/10/04 07:59:10;;;;;;;5.78;0.55;;;14.80;99.90;;;;;;5080847;28;20056;-78
2023/10/04 08:01:39;;;;;;;6.40;0.45;;;14.80;99.90;;;;;;5081624;28;20027;-79
2023/10/04 08:04:07;;;;;;;4.68;1.05;;;14.80;99.90;;;;;;5100269;28;20016;-78
2023/10/04 08:06:35;;;;;;;6.67;0.30;;;14.90;99.90;;;;;;5099664;28;20031;-78
2023/10/04 08:09:00;;;;;;;12.43;0.50;;;14.90;99.90;;;;;;5099299;28;20092;-78
2023/10/04 08:11:27;;;;;;;6.70;0.70;;;15.10;99.90;;;;;;5081011;28;20281;-78
2023/10/04 08:13:53;;;;;;;9.68;0.90;;;15.10;99.90;;;;;;5099902;28;20020;-78
2023/10/04 08:16:18;;;;;;;6.55;1.38;;;15.20;99.90;;;;;;5099043;28;20094;-79
2023/10/04 08:18:44;;;;;;;6.28;0.63;;;15.40;99.90;;;;;;5080913;28;20091;-79
2023/10/04 08:21:09;;;;;;;5.82;0.35;;;15.30;99.90;;;;;;5098998;28;20078;-79
2023/10/04 08:23:35;;;;;;;11.18;1.50;;;15.30;99.90;;;;;;5099306;28;20046;-79
2023/10/04 08:26:00;;;;;;;8.38;0.68;;;15.30;99.90;;;;;;5098863;28;20036;-79
2023/10/04 08:28:26;;;;;;;2.92;0.57;;;15.30;99.90;;;;;;5080780;28;20019;-79
2023/10/04 08:30:51;;;;;;;7.68;0.20;;;15.40;99.90;;;;;;5099297;28;20019;-79
2023/10/04 08:33:31;;;;;;;4.93;0.82;;;15.40;99.90;;;;;;5099214;28;20023;-79
2023/10/04 08:35:57;;;;;;;7.72;1.40;;;15.50;99.90;;;;;;5098764;28;20016;-79
2023/10/04 08:38:25;;;;;;;4.70;0.82;;;15.70;99.90;;;;;;5080626;28;20416;-78
2023/10/04 08:40:50;;;;;;;6.78;0.20;;;15.60;99.90;;;;;;5099062;28;20040;-79
2023/10/04 08:43:17;;;;;;;6.13;0.82;;;15.60;99.90;;;;;;5098501;28;20070;-79
2023/10/04 08:45:43;;;;;;;6.18;0.52;;;15.70;99.90;;;;;;5099061;28;20020;-79
2023/10/04 08:48:09;;;;;;;5.82;0.45;;;15.80;99.90;;;;;;5098632;28;20103;-79
2023/10/04 08:50:34;;;;;;;5.57;0.90;;;16.00;99.90;;;;;;5080324;28;20061;-79
2023/10/04 08:53:15;;;;;;;6.95;1.00;;;16.00;99.90;;;;;;5098378;28;20407;-78
2023/10/04 08:55:48;;;;;;;5.95;1.10;;;16.10;99.90;;;;;;5098509;28;20059;-79
2023/10/04 08:58:15;;;;;;;7.78;1.10;;;16.00;99.90;;;;;;5098830;28;20429;-79
2023/10/04 09:00:44;;;;;;;5.68;1.02;;;16.10;99.90;;;;;;5098951;28;20139;-78
2023/10/04 09:03:12;;;;;;;16.03;1.33;;;16.10;99.90;;;;;;5098661;28;20024;-79
2023/10/04 09:05:39;;;;;;;6.97;1.03;;;16.20;99.90;;;;;;5098423;28;20387;-79
2023/10/04 09:08:05;;;;;;;7.03;0.70;;;16.30;99.90;;;;;;5098463;28;20021;-78
2023/10/04 09:10:33;;;;;;;8.55;0.75;;;16.20;99.90;;;;;;5079213;28;20024;-79
2023/10/04 09:12:59;;;;;;;5.88;0.98;;;16.30;99.90;;;;;;5098283;28;20040;-79
2023/10/04 09:15:24;;;;;;;4.53;1.02;;;16.40;99.90;;;;;;5098061;28;20445;-79
2023/10/04 09:17:57;;;;;;;5.95;0.35;;;16.50;99.90;;;;;;5080364;28;20123;-79
2023/10/04 09:20:31;;;;;;;3.30;0.38;;;16.60;99.90;;;;;;5097883;28;20031;-79
2023/10/04 09:23:00;;;;;;;6.03;0.50;;;16.60;99.90;;;;;;5080284;28;20024;-79
2023/10/04 09:25:40;;;;;;;6.57;0.55;;;16.60;99.90;;;;;;5079847;28;20012;-79
2023/10/04 09:28:09;;;;;;;6.32;0.30;;;16.60;99.90;;;;;;5079915;28;20032;-79
2023/10/04 09:30:38;;;;;;;8.25;1.15;;;16.60;99.90;;;;;;5098243;28;20016;-79
2023/10/04 09:33:06;;;;;;;4.47;0.73;;;16.50;99.90;;;;;;5079588;28;20111;-79
2023/10/04 09:35:42;;;;;;;11.90;0.85;;;16.50;99.90;;;;;;5079442;28;20048;-79
2023/10/04 09:38:15;;;;;;;8.35;0.93;;;16.40;99.90;;;;;;5097731;28;20482;-79
2023/10/04 09:40:55;;;;;;;3.72;0.40;;;16.20;99.90;;;;;;5079733;28;20103;-78
2023/10/04 09:43:37;;;;;;;9.10;1.48;;;16.20;99.90;;;;;;5097585;28;20145;-78
2023/10/04 09:46:10;;;;;;;9.32;1.45;;;16.10;99.90;;;;;;5079305;28;20012;-78
2023/10/04 09:48:44;;;;;;;10.18;0.63;;;15.90;99.90;;;;;;5079113;28;20496;-79
2023/10/04 09:51:10;;;;;;;8.57;0.73;;;15.90;99.90;;;;;;5079511;28;20045;-79
2023/10/04 09:53:38;;;;;;;9.95;0.70;;;15.90;99.90;;;;;;5097768;28;20032;-79
2023/10/04 09:56:04;;;;;;;6.20;0.17;;;16.00;99.90;;;;;;5097183;28;20036;-79
2023/10/04 09:58:32;;;;;;;3.72;0.75;;;16.20;99.90;;;;;;5097196;28;20479;-79
2023/10/04 10:01:12;;;;;;;11.75;2.05;;;16.10;99.90;;;;;;5078856;28;20107;-79
2023/10/04 10:03:59;;;;;;;4.25;0.52;;;16.00;99.90;;;;;;5096968;28;20020;-79
2023/10/04 10:06:29;;;;;;;8.25;1.05;;;16.10;99.90;;;;;;5079131;28;20024;-78
2023/10/04 10:09:07;;;;;;;9.32;1.38;;;16.10;99.90;;;;;;5097146;28;20020;-79
2023/10/04 10:11:34;;;;;;;6.88;1.38;;;16.20;99.90;;;;;;5079129;28;20058;-78
2023/10/04 10:14:09;;;;;;;11.70;1.27;;;16.60;99.90;;;;;;5078675;28;20031;-79
2023/10/04 10:16:36;;;;;;;10.13;1.73;;;16.40;99.90;;;;;;5078216;28;20418;-79
2023/10/04 10:19:03;;;;;;;9.57;1.30;;;16.50;99.90;;;;;;5096481;28;20407;-79
2023/10/04 10:22:11;;;;;;;15.38;1.42;;;16.50;99.90;;;;;;5078388;28;20103;-79
2023/10/04 10:24:45;;;;;;;9.77;1.00;;;16.70;99.90;;;;;;5096413;28;20498;-78
2023/10/04 10:27:17;;;;;;;7.55;0.77;;;16.90;99.90;;;;;;5096496;28;20020;-78
2023/10/04 10:29:43;;;;;;;5.95;0.55;;;17.00;99.90;;;;;;5078313;28;20066;-78
2023/10/04 10:32:35;;;;;;;5.25;1.10;;;16.90;99.90;;;;;;5096529;28;20429;-79
2023/10/04 10:35:05;;;;;;;8.13;0.85;;;16.90;99.90;;;;;;5092119;28;20438;-79
2023/10/04 10:37:38;;;;;;;7.85;0.65;;;16.90;99.90;;;;;;5078175;28;20016;-78
2023/10/04 10:40:24;;;;;;;2.88;0.57;;;17.00;99.90;;;;;;5096380;28;20028;-78
2023/10/04 10:43:09;;;;;;;6.90;0.63;;;17.00;99.90;;;;;;5095666;28;20035;-79
2023/10/04 10:45:35;;;;;;;5.88;0.55;;;17.20;99.90;;;;;;5096344;28;20031;-78
2023/10/04 10:48:06;;;;;;;9.50;0.57;;;17.40;99.90;;;;;;5078200;28;20103;-78
2023/10/04 10:50:37;;;;;;;8.98;0.47;;;17.40;99.90;;;;;;5096131;28;20082;-79
2023/10/04 10:53:05;;;;;;;9.25;1.83;;;17.30;99.90;;;;;;5097012;28;20020;-79
2023/10/04 10:55:33;;;;;;;8.57;0.70;;;17.10;99.90;;;;;;5077791;28;20077;-74
2023/10/04 10:57:59;;;;;;;8.40;0.30;;;17.00;99.90;;;;;;5076681;28;20073;-79
2023/10/04 11:00:31;;;;;;;10.13;0.73;;;16.80;99.90;;;;;;5096353;28;20028;-79
2023/10/04 11:02:57;;;;;;;5.30;1.20;;;16.60;99.90;;;;;;5095646;28;20028;-79
2023/10/04 11:05:23;;;;;;;5.72;0.40;;;16.30;99.90;;;;;;5096560;28;20027;-78
2023/10/04 11:07:51;;;;;;;6.93;0.80;;;16.20;99.90;;;;;;5078050;28;20024;-78
2023/10/04 11:10:17;;;;;;;4.80;0.55;;;16.10;99.90;;;;;;5077412;28;20493;-78
2023/10/04 11:12:44;;;;;;;5.03;0.93;;;16.10;99.90;;;;;;5077526;28;20020;-79
2023/10/04 11:15:10;;;;;;;5.70;0.60;;;16.10;99.90;;;;;;5095912;28;20028;-79
2023/10/04 11:17:37;;;;;;;8.18;1.00;;;16.10;99.90;;;;;;5077344;28;20016;-79
2023/10/04 11:20:12;;;;;;;4.22;0.10;;;16.10;99.90;;;;;;5095546;28;20016;-79
2023/10/04 11:22:39;;;;;;;5.55;0.50;;;16.30;99.90;;;;;;5095469;28;20016;-78
2023/10/04 11:25:06;;;;;;;8.70;0.38;;;16.40;99.90;;;;;;5095280;28;20077;-78
2023/10/04 11:27:33;;;;;;;7.38;1.00;;;16.40;99.90;;;;;;5095321;28;20488;-78
2023/10/04 11:29:59;;;;;;;5.15;0.55;;;17.00;99.90;;;;;;5076973;28;20020;-78
2023/10/04 11:32:28;;;;;;;5.72;0.45;;;16.70;99.90;;;;;;5076679;28;20042;-78
2023/10/04 11:34:57;;;;;;;10.07;1.13;;;16.90;99.90;;;;;;5095245;28;20046;-78
2023/10/04 11:37:27;;;;;;;3.50;0.22;;;17.10;99.90;;;;;;5095350;28;20103;-78
2023/10/04 11:39:54;;;;;;;4.00;0.55;;;17.20;99.90;;;;;;5077201;28;20133;-79
2023/10/04 11:42:22;;;;;;;7.28;1.13;;;17.30;99.90;;;;;;5077227;28;20391;-79
2023/10/04 11:44:48;;;;;;;3.83;0.40;;;17.40;99.90;;;;;;5095654;28;20023;-79
2023/10/04 11:47:15;;;;;;;6.95;0.70;;;17.60;99.90;;;;;;5076974;28;20085;-79
2023/10/04 11:49:58;;;;;;;8.80;0.98;;;17.70;99.90;;;;;;5077475;28;20016;-78
2023/10/04 11:52:31;;;;;;;7.88;0.40;;;17.70;99.90;;;;;;5076967;28;20024;-79
2023/10/04 11:54:58;;;;;;;6.05;0.40;;;17.70;99.90;;;;;;5076690;28;20114;-79
2023/10/04 11:57:31;;;;;;;7.68;0.40;;;17.80;99.90;;;;;;5077205;28;20024;-78
2023/10/04 11:59:57;;;;;;;7.72;0.95;;;17.70;99.90;;;;;;5095499;28;20480;-78
2023/10/04 12:02:25;;;;;;;14.70;0.95;;;17.30;99.90;;;;;;5095058;28;20016;-78
2023/10/04 12:04:51;;;;;;;8.32;0.93;;;17.40;99.90;;;;;;5095240;28;20027;-79
2023/10/04 12:07:17;;;;;;;8.13;1.05;;;18.70;99.90;;;;;;5095342;28;20387;-78
2023/10/04 12:09:42;;;;;;;6.43;1.17;;;17.40;99.90;;;;;;5095288;28;20107;-79
2023/10/04 12:12:08;;;;;;;8.70;0.75;;;17.40;99.90;;;;;;5077148;28;20020;-79
2023/10/04 12:14:34;;;;;;;4.80;1.17;;;17.40;99.90;;;;;;5095102;28;20032;-79
2023/10/04 12:17:04;;;;;;;3.13;0.32;;;17.40;99.90;;;;;;5095144;28;20027;-78
2023/10/04 12:19:35;;;;;;;5.20;0.90;;;17.30;99.90;;;;;;5094873;28;20397;-78
2023/10/04 12:22:02;;;;;;;2.83;0.50;;;17.10;99.90;;;;;;5076878;28;20027;-79
2023/10/04 12:24:31;;;;;;;5.13;0.30;;;17.10;99.90;;;;;;5095097;28;20077;-78
2023/10/04 12:26:59;;;;;;;9.23;0.63;;;18.00;99.90;;;;;;5095241;28;20429;-78
2023/10/04 12:29:27;;;;;;;4.10;0.10;;;17.00;99.90;;;;;;5077109;28;20059;-78
2023/10/04 12:31:54;;;;;;;8.40;0.65;;;16.90;99.90;;;;;;5095170;28;20070;-79
2023/10/04 12:34:20;;;;;;;3.00;0.30;;;16.80;99.90;;;;;;5094614;28;20027;-79
2023/10/04 12:36:46;;;;;;;7.05;0.10;;;16.70;99.90;;;;;;5094346;28;20445;-79
2023/10/04 12:39:16;;;;;;;1.55;0.17;;;16.70;99.90;;;;;;5094814;28;20046;-79
2023/10/04 12:41:42;;;;;;;4.20;0.25;;;16.80;99.90;;;;;;5076963;28;20020;-79
2023/10/04 12:44:08;;;;;;;6.10;0.52;;;16.80;99.90;;;;;;5094634;28;20085;-79
2023/10/04 12:46:34;;;;;;;7.15;0.52;;;17.00;99.90;;;;;;5079842;28;20028;-78
2023/10/04 12:49:00;;;;;;;4.43;0.63;;;17.00;99.90;;;;;;5098294;28;20034;-78
2023/10/04 12:51:29;;;;;;;5.55;0.25;;;17.10;99.90;;;;;;5098451;28;20027;-79
2023/10/04 12:53:54;;;;;;;3.25;0.20;;;17.20;99.90;;;;;;5080000;28;20413;-78
2023/10/04 12:56:20;;;;;;;4.63;0.32;;;17.10;99.90;;;;;;5098152;28;20111;-79
2023/10/04 12:58:47;;;;;;;6.28;0.75;;;17.10;99.90;;;;;;5080038;28;20040;-79
2023/10/04 13:01:18;;;;;;;9.50;0.30;;;17.20;99.90;;;;;;5097819;28;20008;-79